createdAt,value
2018-09-08T00:01:08.158Z,27.63
2018-09-08T00:03:38.666Z,27.27
2018-09-08T00:06:09.968Z,30.03
2018-09-08T00:08:41.396Z,29.07
2018-09-08T00:11:12.688Z,30.90
2018-09-08T00:13:44.108Z,29.80
2018-09-08T00:16:20.906Z,29.50
2018-09-08T00:18:57.259Z,30.23
2018-09-08T00:21:33.412Z,33.17
2018-09-08T00:24:09.839Z,30.93
2018-09-08T00:26:40.278Z,28.83
2018-09-08T00:29:17.940Z,30.73
2018-09-08T00:31:48.599Z,33.20
2018-09-08T00:34:19.296Z,31.07
2018-09-08T00:36:50.633Z,34.20
2018-09-08T00:39:21.609Z,31.20
2018-09-08T00:41:52.378Z,30.50
2018-09-08T00:44:23.685Z,31.50
2018-09-08T00:46:54.853Z,30.03
2018-09-08T00:49:26.062Z,30.00
2018-09-08T00:51:57.536Z,29.37
2018-09-08T00:54:29.215Z,31.47
2018-09-08T00:57:00.519Z,29.83
2018-09-08T00:59:32.753Z,32.17
2018-09-08T01:02:03.763Z,26.17
2018-09-08T01:04:37.961Z,27.90
2018-09-08T01:07:13.559Z,29.67
2018-09-08T01:09:44.937Z,26.07
2018-09-08T01:12:15.832Z,27.23
2018-09-08T01:14:47.810Z,25.83
2018-09-08T01:17:19.001Z,27.70
2018-09-08T01:19:50.461Z,26.27
2018-09-08T01:22:20.926Z,25.50
2018-09-08T01:24:51.829Z,27.87
2018-09-08T01:27:22.907Z,26.73
2018-09-08T01:29:53.837Z,25.90
2018-09-08T01:32:25.189Z,25.90
2018-09-08T01:34:56.182Z,27.70
2018-09-08T01:37:27.767Z,27.47
2018-09-08T01:39:58.965Z,26.87
2018-09-08T01:42:30.437Z,26.83
2018-09-08T01:45:01.694Z,29.47
2018-09-08T01:47:33.248Z,27.53
2018-09-08T01:50:04.174Z,30.10
2018-09-08T01:52:34.710Z,29.67
2018-09-08T01:55:05.514Z,30.13
2018-09-08T01:57:36.364Z,33.27
2018-09-08T02:00:09.396Z,30.77
2018-09-08T02:02:40.814Z,32.47
2018-09-08T02:05:12.333Z,31.40
2018-09-08T02:07:43.385Z,41.43
2018-09-08T02:10:15.259Z,30.57
2018-09-08T02:12:46.428Z,33.53
2018-09-08T02:15:17.825Z,37.97
2018-09-08T02:17:48.801Z,33.63
2018-09-08T02:20:19.787Z,34.90
2018-09-08T02:22:51.122Z,34.80
2018-09-08T02:25:21.419Z,32.53
2018-09-08T02:27:52.914Z,36.63
2018-09-08T02:30:23.909Z,35.93
2018-09-08T02:32:54.787Z,36.90
2018-09-08T02:35:26.070Z,32.87
2018-09-08T02:37:57.491Z,31.10
2018-09-08T02:40:28.756Z,33.53
2018-09-08T02:42:59.755Z,33.77
2018-09-08T02:45:31.306Z,36.83
2018-09-08T02:48:02.448Z,31.80
2018-09-08T02:50:47.031Z,30.80
2018-09-08T02:53:16.677Z,33.27
2018-09-08T02:55:45.758Z,31.57
2018-09-08T02:58:15.193Z,31.40
2018-09-08T03:00:44.989Z,35.00
2018-09-08T03:03:14.611Z,33.93
2018-09-08T03:05:44.769Z,30.77
2018-09-08T03:08:14.104Z,32.77
2018-09-08T03:10:43.584Z,32.53
2018-09-08T03:13:12.955Z,27.87
2018-09-08T03:15:41.816Z,33.23
2018-09-08T03:18:10.608Z,31.80
2018-09-08T03:20:40.185Z,28.70
2018-09-08T03:23:09.119Z,28.93
2018-09-08T03:25:38.518Z,33.27
2018-09-08T03:28:07.785Z,32.77
2018-09-08T03:30:37.017Z,32.37
2018-09-08T03:33:06.642Z,30.13
2018-09-08T03:35:35.195Z,32.77
2018-09-08T03:38:03.748Z,29.63
2018-09-08T03:40:32.366Z,30.87
2018-09-08T03:43:01.049Z,30.67
2018-09-08T03:45:29.651Z,30.33
2018-09-08T03:47:58.202Z,29.30
2018-09-08T03:50:26.903Z,34.67
2018-09-08T03:52:55.607Z,28.37
2018-09-08T03:55:24.155Z,28.10
2018-09-08T03:57:52.760Z,28.73
2018-09-08T04:00:21.451Z,30.63
2018-09-08T04:02:51.449Z,31.10
2018-09-08T04:05:21.747Z,35.03
2018-09-08T04:07:52.045Z,36.50
2018-09-08T04:10:22.153Z,33.50
2018-09-08T04:12:53.121Z,32.83
2018-09-08T04:15:23.503Z,34.00
2018-09-08T04:17:53.595Z,32.47
2018-09-08T04:20:23.869Z,32.73
2018-09-08T04:22:53.967Z,34.27
2018-09-08T04:25:24.297Z,28.77
2018-09-08T04:27:54.640Z,28.30
2018-09-08T04:30:25.033Z,34.07
2018-09-08T04:32:55.242Z,30.20
2018-09-08T04:35:25.340Z,30.17
2018-09-08T04:37:55.526Z,31.23
2018-09-08T04:40:26.147Z,28.27
2018-09-08T04:42:56.364Z,31.77
2018-09-08T04:45:26.634Z,29.97
2018-09-08T04:47:57.016Z,29.87
2018-09-08T04:50:27.502Z,33.13
2018-09-08T04:52:58.137Z,28.37
2018-09-08T04:55:28.471Z,29.33
2018-09-08T04:57:59.136Z,31.27
2018-09-08T05:00:29.571Z,29.27
2018-09-08T05:03:01.006Z,30.47
2018-09-08T05:05:31.171Z,27.43
2018-09-08T05:08:01.778Z,28.87
2018-09-08T05:10:32.606Z,29.10
2018-09-08T05:13:02.959Z,30.53
2018-09-08T05:15:33.053Z,33.03
2018-09-08T05:18:03.270Z,26.53
2018-09-08T05:20:34.176Z,26.33
2018-09-08T05:23:04.740Z,29.33
2018-09-08T05:25:35.970Z,28.73
2018-09-08T05:28:06.643Z,27.97
2018-09-08T05:30:38.099Z,25.53
2018-09-08T05:33:08.502Z,27.23
2018-09-08T05:35:38.596Z,22.67
2018-09-08T05:38:08.663Z,24.50
2018-09-08T05:40:40.003Z,26.33
2018-09-08T05:43:10.300Z,25.30
2018-09-08T05:45:40.908Z,23.83
2018-09-08T05:48:11.504Z,22.03
2018-09-08T05:50:43.013Z,22.27
2018-09-08T05:53:13.539Z,23.17
2018-09-08T05:55:43.738Z,21.57
2018-09-08T05:58:13.905Z,19.90
2018-09-08T06:00:44.169Z,18.97
2018-09-08T06:03:14.706Z,20.17
2018-09-08T06:05:44.893Z,24.87
2018-09-08T06:08:15.202Z,19.33
2018-09-08T06:10:45.531Z,19.90
2018-09-08T06:13:15.874Z,20.70
2018-09-08T06:15:46.175Z,20.17
2018-09-08T06:18:16.234Z,19.03
2018-09-08T06:20:46.518Z,19.03
2018-09-08T06:23:16.849Z,18.23
2018-09-08T06:25:47.274Z,18.67
2018-09-08T06:28:17.539Z,19.23
2018-09-08T06:30:47.786Z,22.10
2018-09-08T06:33:18.188Z,19.30
2018-09-08T06:35:48.378Z,16.70
2018-09-08T06:38:18.481Z,17.93
2018-09-08T06:40:48.920Z,17.40
2018-09-08T06:43:19.269Z,16.27
2018-09-08T06:45:49.512Z,19.23
2018-09-08T06:48:19.711Z,17.43
2018-09-08T06:50:49.978Z,17.40
2018-09-08T06:53:20.345Z,16.37
2018-09-08T06:55:50.398Z,16.60
2018-09-08T06:58:20.400Z,17.57
2018-09-08T07:00:50.726Z,16.23
2018-09-08T07:03:21.041Z,16.37
2018-09-08T07:05:51.160Z,18.23
2018-09-08T07:08:21.496Z,16.03
2018-09-08T07:10:51.888Z,15.77
2018-09-08T07:13:22.285Z,16.77
2018-09-08T07:15:52.458Z,17.87
2018-09-08T07:18:22.656Z,18.40
2018-09-08T07:20:54.347Z,16.73
2018-09-08T07:23:25.895Z,16.57
2018-09-08T07:25:56.509Z,17.90
2018-09-08T07:28:26.767Z,15.40
2018-09-08T07:30:57.206Z,16.23
2018-09-08T07:33:27.379Z,15.70
2018-09-08T07:35:57.598Z,21.70
2018-09-08T07:38:27.753Z,17.83
2018-09-08T07:40:58.169Z,17.13
2018-09-08T07:43:28.458Z,16.87
2018-09-08T07:45:58.798Z,15.37
2018-09-08T07:48:29.353Z,15.50
2018-09-08T07:50:59.513Z,16.23
2018-09-08T07:53:29.762Z,17.27
2018-09-08T07:56:00.081Z,17.57
2018-09-08T07:58:30.105Z,14.50
2018-09-08T08:01:01.431Z,15.33
2018-09-08T08:03:31.786Z,14.80
2018-09-08T08:06:01.764Z,15.73
2018-09-08T08:08:32.035Z,15.17
2018-09-08T08:11:02.433Z,15.67
2018-09-08T08:13:32.695Z,15.13
2018-09-08T08:16:02.809Z,14.67
2018-09-08T08:18:32.882Z,15.13
2018-09-08T08:21:03.179Z,15.20
2018-09-08T08:23:33.602Z,15.07
2018-09-08T08:26:07.736Z,16.33
2018-09-08T08:28:38.294Z,13.90
2018-09-08T08:31:08.959Z,15.57
2018-09-08T08:33:39.496Z,17.57
2018-09-08T08:36:09.822Z,14.27
2018-09-08T08:38:40.037Z,15.60
2018-09-08T08:41:10.454Z,14.47
2018-09-08T08:43:40.808Z,15.37
2018-09-08T08:46:11.216Z,14.80
2018-09-08T08:48:41.531Z,14.53
2018-09-08T08:51:22.629Z,14.70
2018-09-08T08:54:03.579Z,14.33
2018-09-08T08:56:33.622Z,15.30
2018-09-08T08:59:04.333Z,14.70
2018-09-08T09:01:35.370Z,14.03
2018-09-08T09:04:05.601Z,13.57
2018-09-08T09:06:36.538Z,13.47
2018-09-08T09:09:11.757Z,14.07
2018-09-08T09:11:41.805Z,14.67
2018-09-08T09:14:12.575Z,14.10
2018-09-08T09:16:42.982Z,13.67
2018-09-08T09:19:34.138Z,13.43
2018-09-08T09:22:16.600Z,15.13
2018-09-08T09:24:51.250Z,13.57
2018-09-08T09:27:21.484Z,13.50
2018-09-08T09:29:51.763Z,13.17
2018-09-08T09:32:22.165Z,13.03
2018-09-08T09:34:53.500Z,13.50
2018-09-08T09:37:23.824Z,13.40
2018-09-08T09:39:54.742Z,12.87
2018-09-08T09:42:25.216Z,12.47
2018-09-08T09:44:55.797Z,12.77
2018-09-08T09:47:26.185Z,14.23
2018-09-08T09:49:56.781Z,13.60
2018-09-08T09:52:27.338Z,12.50
2018-09-08T09:54:57.880Z,13.13
2018-09-08T09:57:28.037Z,13.70
2018-09-08T09:59:58.612Z,13.77
2018-09-08T10:02:39.595Z,12.88
2018-09-08T10:05:12.762Z,12.80
2018-09-08T10:07:42.741Z,12.07
2018-09-08T10:10:14.407Z,12.03
2018-09-08T10:12:44.957Z,12.65
2018-09-08T10:15:15.151Z,11.53
2018-09-08T10:17:45.848Z,13.78
2018-09-08T10:20:17.792Z,11.88
2018-09-08T10:22:48.026Z,12.80
2018-09-08T10:25:19.425Z,13.30
2018-09-08T10:27:50.216Z,12.30
2018-09-08T10:30:20.464Z,12.10
2018-09-08T10:32:50.729Z,11.63
2018-09-08T10:35:21.211Z,11.67
2018-09-08T10:37:51.335Z,11.67
2018-09-08T10:40:21.979Z,13.47
2018-09-08T10:42:52.398Z,13.87
2018-09-08T10:45:22.717Z,12.57
2018-09-08T10:47:53.348Z,13.93
2018-09-08T10:50:23.486Z,11.30
2018-09-08T10:52:53.973Z,14.37
2018-09-08T10:55:24.014Z,14.70
2018-09-08T10:57:54.154Z,13.13
2018-09-08T11:00:24.362Z,14.10
2018-09-08T11:02:54.920Z,15.17
2018-09-08T11:05:25.178Z,12.07
2018-09-08T11:07:55.184Z,12.53
2018-09-08T11:10:25.586Z,18.33
2018-09-08T11:12:56.005Z,11.90
2018-09-08T11:15:26.314Z,12.07
2018-09-08T11:17:56.524Z,12.65
2018-09-08T11:20:27.056Z,12.35
2018-09-08T11:22:57.885Z,10.65
2018-09-08T11:25:28.215Z,11.97
2018-09-08T11:27:58.824Z,11.90
2018-09-08T11:30:29.300Z,10.93
2018-09-08T11:32:59.614Z,11.22
2018-09-08T11:35:29.814Z,10.75
2018-09-08T11:37:59.832Z,10.18
2018-09-08T11:40:30.585Z,11.15
2018-09-08T11:43:01.010Z,11.03
2018-09-08T11:45:31.299Z,10.35
2018-09-08T11:48:01.630Z,9.80
2018-09-08T11:50:31.739Z,10.55
2018-09-08T11:53:02.038Z,10.25
2018-09-08T11:55:32.234Z,10.13
2018-09-08T11:58:02.421Z,9.95
2018-09-08T12:00:32.632Z,9.45
2018-09-08T12:03:02.876Z,10.30
2018-09-08T12:05:33.279Z,10.25
2018-09-08T12:08:03.499Z,10.95
2018-09-08T12:10:33.889Z,9.70
2018-09-08T12:13:04.330Z,10.55
2018-09-08T12:15:34.617Z,10.18
2018-09-08T12:18:04.736Z,10.45
2018-09-08T12:20:35.065Z,12.53
2018-09-08T12:23:05.898Z,11.08
2018-09-08T12:25:35.963Z,10.28
2018-09-08T12:28:06.280Z,11.15
2018-09-08T12:30:36.606Z,11.25
2018-09-08T12:33:07.913Z,11.30
2018-09-08T12:35:38.015Z,12.07
2018-09-08T12:38:07.981Z,11.63
2018-09-08T12:40:38.511Z,10.82
2018-09-08T12:43:08.823Z,10.28
2018-09-08T12:45:39.274Z,10.70
2018-09-08T12:48:10.606Z,11.13
2018-09-08T12:50:41.104Z,10.93
2018-09-08T12:53:11.805Z,10.93
2018-09-08T12:55:42.041Z,11.10
2018-09-08T12:58:12.411Z,11.50
2018-09-08T13:00:42.950Z,11.23
2018-09-08T13:03:13.494Z,14.03
2018-09-08T13:05:43.989Z,10.63
2018-09-08T13:08:14.125Z,12.27
2018-09-08T13:10:44.433Z,10.27
2018-09-08T13:13:15.239Z,9.73
2018-09-08T13:15:45.317Z,10.23
2018-09-08T13:18:15.588Z,11.10
2018-09-08T13:20:45.896Z,10.80
2018-09-08T13:23:17.301Z,10.50
2018-09-08T13:25:47.520Z,10.10
2018-09-08T13:28:17.980Z,10.70
2018-09-08T13:30:48.172Z,10.63
2018-09-08T13:33:18.468Z,9.50
2018-09-08T13:35:48.750Z,10.03
2018-09-08T13:38:19.060Z,9.37
2018-09-08T13:40:49.281Z,9.27
2018-09-08T13:43:19.575Z,9.20
2018-09-08T13:45:50.308Z,8.77
2018-09-08T13:48:20.856Z,11.17
2018-09-08T13:50:51.510Z,8.43
2018-09-08T13:53:21.959Z,8.53
2018-09-08T13:55:52.206Z,8.47
2018-09-08T13:58:22.293Z,10.83
2018-09-08T14:00:52.798Z,8.30
2018-09-08T14:03:23.325Z,8.90
2018-09-08T14:05:54.364Z,9.93
2018-09-08T14:08:24.442Z,8.73
2018-09-08T14:10:54.770Z,8.50
2018-09-08T14:13:25.048Z,9.13
2018-09-08T14:15:55.346Z,8.97
2018-09-08T14:18:25.497Z,9.77
2018-09-08T14:20:55.816Z,9.43
2018-09-08T14:23:26.244Z,9.27
2018-09-08T14:25:56.413Z,9.10
2018-09-08T14:28:27.243Z,10.10
2018-09-08T14:30:57.663Z,9.70
2018-09-08T14:33:28.019Z,10.20
2018-09-08T14:35:58.347Z,8.63
2018-09-08T14:38:28.331Z,8.47
2018-09-08T14:40:58.736Z,8.67
2018-09-08T14:43:29.185Z,11.37
2018-09-08T14:45:59.531Z,13.83
2018-09-08T14:48:29.865Z,10.00
2018-09-08T14:51:00.475Z,9.80
2018-09-08T14:53:31.018Z,8.80
2018-09-08T14:56:01.158Z,19.57
2018-09-08T14:58:31.344Z,9.83
2018-09-08T15:01:01.662Z,12.77
2018-09-08T15:03:32.046Z,10.10
2018-09-08T15:06:02.408Z,8.30
2018-09-08T15:08:32.617Z,8.70
2018-09-08T15:11:02.938Z,7.00
2018-09-08T15:13:33.138Z,7.30
2018-09-08T15:16:03.346Z,9.17
2018-09-08T15:18:33.857Z,9.90
2018-09-08T15:21:04.213Z,9.13
2018-09-08T15:23:34.743Z,9.87
2018-09-08T15:26:05.411Z,8.80
2018-09-08T15:28:35.585Z,9.77
2018-09-08T15:31:05.933Z,12.10
2018-09-08T15:33:36.387Z,10.57
2018-09-08T15:36:06.545Z,11.90
2018-09-08T15:38:36.488Z,9.43
2018-09-08T15:41:06.667Z,10.27
2018-09-08T15:43:36.979Z,10.10
2018-09-08T15:46:07.364Z,11.00
2018-09-08T15:48:37.670Z,10.57
2018-09-08T15:51:07.869Z,10.90
2018-09-08T15:53:38.271Z,9.10
2018-09-08T15:56:08.535Z,10.03
2018-09-08T15:58:38.646Z,10.73
2018-09-08T16:01:08.897Z,12.10
2018-09-08T16:03:39.165Z,14.20
2018-09-08T16:06:09.329Z,17.13
2018-09-08T16:08:39.165Z,11.50
2018-09-08T16:11:09.708Z,12.17
2018-09-08T16:13:39.981Z,12.20
2018-09-08T16:16:09.926Z,15.50
2018-09-08T16:18:40.207Z,13.37
2018-09-08T16:21:10.511Z,11.73
2018-09-08T16:23:40.612Z,13.37
2018-09-08T16:26:10.815Z,12.07
2018-09-08T16:28:41.182Z,11.77
2018-09-08T16:31:11.483Z,14.23
2018-09-08T16:33:41.571Z,12.50
2018-09-08T16:36:11.555Z,12.07
2018-09-08T16:38:41.971Z,12.50
2018-09-08T16:41:12.369Z,13.30
2018-09-08T16:43:42.795Z,11.90
2018-09-08T16:46:12.864Z,13.47
2018-09-08T16:48:43.272Z,12.20
2018-09-08T16:51:13.420Z,11.90
2018-09-08T16:53:43.726Z,11.77
2018-09-08T16:56:13.811Z,13.80
2018-09-08T16:58:44.160Z,11.70
2018-09-08T17:01:14.434Z,12.80
2018-09-08T17:03:44.852Z,14.13
2018-09-08T17:06:15.155Z,13.47
2018-09-08T17:08:45.174Z,12.80
2018-09-08T17:11:15.481Z,12.07
2018-09-08T17:13:45.835Z,12.43
2018-09-08T17:16:15.923Z,13.90
2018-09-08T17:18:46.165Z,12.07
2018-09-08T17:21:16.487Z,21.37
2018-09-08T17:23:46.829Z,19.93
2018-09-08T17:26:17.156Z,15.70
2018-09-08T17:28:47.422Z,13.13
2018-09-08T17:31:17.955Z,13.57
2018-09-08T17:33:48.542Z,16.23
2018-09-08T17:36:18.713Z,13.57
2018-09-08T17:38:48.938Z,17.83
2018-09-08T17:41:19.044Z,12.93
2018-09-08T17:43:49.582Z,14.87
2018-09-08T17:46:21.295Z,15.37
2018-09-08T17:48:52.269Z,14.73
2018-09-08T17:51:24.443Z,17.23
2018-09-08T17:53:56.051Z,14.97
2018-09-08T17:56:27.717Z,14.43
2018-09-08T17:58:59.285Z,16.90
2018-09-08T18:01:30.286Z,19.50
2018-09-08T18:04:02.344Z,13.17
2018-09-08T18:06:34.034Z,19.53
2018-09-08T18:09:05.722Z,16.80
2018-09-08T18:11:37.565Z,16.53
2018-09-08T18:14:07.940Z,17.33
2018-09-08T18:16:38.109Z,19.00
2018-09-08T18:19:08.674Z,17.60
2018-09-08T18:21:39.919Z,21.10
2018-09-08T18:24:10.163Z,19.30
2018-09-08T18:26:40.946Z,18.07
2018-09-08T18:29:11.333Z,17.07
2018-09-08T18:31:41.707Z,15.27
2018-09-08T18:34:11.965Z,16.30
2018-09-08T18:36:42.718Z,19.17
2018-09-08T18:39:13.156Z,18.83
2018-09-08T18:41:43.515Z,16.20
2018-09-08T18:44:13.907Z,16.73
2018-09-08T18:46:44.287Z,17.70
2018-09-08T18:49:14.727Z,15.37
2018-09-08T18:51:45.215Z,19.50
2018-09-08T18:54:15.727Z,20.40
2018-09-08T18:56:45.963Z,18.53
2018-09-08T18:59:16.403Z,20.23
2018-09-08T19:01:47.198Z,17.80
2018-09-08T19:04:17.765Z,19.97
2018-09-08T19:06:51.435Z,16.60
2018-09-08T19:09:21.887Z,18.40
2018-09-08T19:11:52.037Z,16.83
2018-09-08T19:14:27.199Z,16.33
2018-09-08T19:16:57.621Z,16.90
2018-09-08T19:19:28.014Z,18.60
2018-09-08T19:21:58.937Z,19.03
2018-09-08T19:24:34.329Z,17.27
2018-09-08T19:27:04.430Z,18.77
2018-09-08T19:29:40.389Z,20.80
2018-09-08T19:32:10.490Z,19.13
2018-09-08T19:34:40.696Z,17.77
2018-09-08T19:37:11.100Z,16.30
2018-09-08T19:39:41.479Z,21.70
2018-09-08T19:42:11.973Z,16.80
2018-09-08T19:44:43.467Z,17.50
2018-09-08T19:47:18.803Z,17.53
2018-09-08T19:49:50.154Z,18.93
2018-09-08T19:52:25.162Z,18.27
2018-09-08T19:54:55.335Z,17.30
2018-09-08T19:57:30.733Z,20.57
2018-09-08T20:00:00.858Z,18.37
2018-09-08T20:02:31.438Z,19.40
2018-09-08T20:05:01.918Z,21.23
2018-09-08T20:07:32.662Z,20.53
2018-09-08T20:10:03.260Z,19.80
2018-09-08T20:12:34.372Z,20.47
2018-09-08T20:15:04.533Z,19.83
2018-09-08T20:17:34.770Z,18.00
2018-09-08T20:20:06.620Z,17.17
2018-09-08T20:22:37.027Z,18.87
2018-09-08T20:25:07.700Z,18.40
2018-09-08T20:27:38.067Z,21.60
2018-09-08T20:30:09.371Z,19.43
2018-09-08T20:32:39.597Z,20.57
2018-09-08T20:35:09.975Z,27.77
2018-09-08T20:37:40.434Z,17.83
2018-09-08T20:40:10.798Z,19.77
2018-09-08T20:42:41.111Z,15.47
2018-09-08T20:45:11.544Z,20.50
2018-09-08T20:47:42.905Z,21.87
2018-09-08T20:50:14.769Z,19.47
2018-09-08T20:52:46.323Z,21.03
2018-09-08T20:55:18.150Z,21.13
2018-09-08T20:57:50.191Z,20.47
2018-09-08T21:00:21.959Z,18.73
2018-09-08T21:02:53.876Z,22.13
2018-09-08T21:05:25.692Z,20.10
2018-09-08T21:07:57.407Z,21.70
2018-09-08T21:10:29.249Z,20.43
2018-09-08T21:13:00.908Z,18.30
2018-09-08T21:15:32.358Z,20.67
2018-09-08T21:18:04.342Z,18.00
2018-09-08T21:20:36.378Z,18.00
2018-09-08T21:23:08.375Z,18.07
2018-09-08T21:25:40.167Z,19.60
2018-09-08T21:28:11.753Z,24.17
2018-09-08T21:30:43.930Z,21.17
2018-09-08T21:33:16.014Z,20.03
2018-09-08T21:35:48.134Z,20.97
2018-09-08T21:38:19.709Z,22.37
2018-09-08T21:40:51.313Z,21.80
2018-09-08T21:43:22.865Z,22.90
2018-09-08T21:45:54.637Z,23.33
2018-09-08T21:48:26.269Z,24.13
2018-09-08T21:50:58.328Z,23.33
2018-09-08T21:53:30.188Z,23.80
2018-09-08T21:56:02.337Z,24.53
2018-09-08T21:58:34.287Z,25.03
2018-09-08T22:01:11.054Z,23.13
2018-09-08T22:03:42.987Z,21.27
2018-09-08T22:06:14.399Z,20.93
2018-09-08T22:08:46.272Z,23.27
2018-09-08T22:11:17.924Z,22.07
2018-09-08T22:13:49.844Z,23.50
2018-09-08T22:16:22.894Z,22.07
2018-09-08T22:18:54.604Z,24.17
2018-09-08T22:21:26.355Z,21.40
2018-09-08T22:23:57.923Z,20.63
2018-09-08T22:26:29.574Z,21.60
2018-09-08T22:29:01.177Z,19.93
2018-09-08T22:31:32.805Z,21.33
2018-09-08T22:34:04.588Z,21.90
2018-09-08T22:36:36.535Z,22.27
2018-09-08T22:39:09.559Z,20.27
2018-09-08T22:41:41.388Z,23.03
2018-09-08T22:44:12.572Z,22.17
2018-09-08T22:46:43.576Z,21.90
2018-09-08T22:49:15.275Z,20.73
2018-09-08T22:51:46.189Z,20.13
2018-09-08T22:54:17.404Z,20.57
2018-09-08T22:56:48.821Z,25.33
2018-09-08T22:59:20.698Z,26.53
2018-09-08T23:01:52.853Z,20.20
2018-09-08T23:04:24.228Z,21.70
2018-09-08T23:06:55.679Z,20.33
2018-09-08T23:09:27.185Z,23.30
2018-09-08T23:11:58.779Z,21.13
2018-09-08T23:14:30.225Z,22.53
2018-09-08T23:17:01.687Z,26.73
2018-09-08T23:19:34.166Z,23.37
2018-09-08T23:22:04.941Z,20.97
2018-09-08T23:24:36.424Z,23.63
2018-09-08T23:27:07.697Z,21.97
2018-09-08T23:29:39.269Z,25.17
2018-09-08T23:32:10.521Z,23.50
2018-09-08T23:34:41.558Z,21.43
2018-09-08T23:37:12.960Z,23.40
2018-09-08T23:39:44.091Z,23.23
2018-09-08T23:42:14.946Z,21.73
2018-09-08T23:44:45.908Z,24.53
2018-09-08T23:47:16.963Z,22.63
2018-09-08T23:49:48.516Z,26.07
2018-09-08T23:52:19.696Z,24.73
2018-09-08T23:54:51.682Z,24.50
2018-09-08T23:57:23.164Z,25.27
2018-09-08T23:59:54.903Z,25.77
